Time;durP1;ratioP1;P1;durP2;ratioP2;P2;SDS_P1;SDS_P2;PMS_P1;PMS_P2;Temp;Humidity;BMP_temperature;BMP_pressure;BME280_temperature;BME280_humidity;BME280_pressure;Samples;Min_cycle;Max_cycle;Signal;HPM_P1;HPM_P2
2022/11/11 00:02:03;;;;;;;12.53;8.90;;;8.20;99.90;;;;;;4978493;28;20505;-67
2022/11/11 00:04:29;;;;;;;10.60;9.50;;;8.10;99.90;;;;;;4978634;28;20506;-67
2022/11/11 00:06:56;;;;;;;10.53;9.43;;;8.10;99.90;;;;;;4978470;28;20516;-67
2022/11/11 00:09:23;;;;;;;10.50;9.47;;;8.10;99.90;;;;;;4978425;28;20454;-67
2022/11/11 00:11:49;;;;;;;13.00;10.60;;;8.10;99.90;;;;;;4984632;28;20478;-68
2022/11/11 00:14:16;;;;;;;12.00;10.90;;;8.10;99.90;;;;;;4984647;28;20479;-66
2022/11/11 00:25:08;;;;;;;14.47;12.47;;;7.90;99.90;;;;;;4978256;28;20469;-67
2022/11/11 00:27:35;;;;;;;15.53;12.97;;;7.90;99.90;;;;;;4978094;28;20456;-67
2022/11/11 00:30:02;;;;;;;15.70;14.10;;;7.80;99.90;;;;;;4977825;28;20942;-68
2022/11/11 00:32:32;;;;;;;16.77;15.17;;;7.80;99.90;;;;;;4978114;28;20474;-67
2022/11/11 00:37:45;;;;;;;16.83;15.30;;;7.70;99.90;;;;;;4977948;28;20419;-68
2022/11/11 00:40:12;;;;;;;15.63;14.10;;;7.70;99.90;;;;;;4977507;28;21029;-67
2022/11/11 00:42:40;;;;;;;15.50;13.97;;;7.70;99.90;;;;;;4977811;28;20455;-67
2022/11/11 00:45:08;;;;;;;17.23;15.17;;;7.60;99.90;;;;;;4977951;28;20454;-68
2022/11/11 00:53:11;;;;;;;17.93;16.07;;;7.60;99.90;;;;;;4977651;28;20481;-67
2022/11/11 00:55:37;;;;;;;19.80;15.67;;;7.50;99.90;;;;;;4977677;28;20542;-68
2022/11/11 00:58:04;;;;;;;17.63;16.03;;;7.50;99.90;;;;;;4977571;28;20454;-68
2022/11/11 01:00:31;;;;;;;17.00;15.20;;;7.50;99.90;;;;;;4976507;28;20466;-68
2022/11/11 01:02:59;;;;;;;17.20;15.40;;;7.50;99.90;;;;;;4977526;28;20478;-67
2022/11/11 01:05:25;;;;;;;17.30;15.47;;;7.50;99.90;;;;;;4977473;28;20868;-68
2022/11/11 01:07:52;;;;;;;19.07;17.27;;;7.40;99.90;;;;;;4977334;28;20459;-67
2022/11/11 01:13:11;;;;;;;19.13;17.30;;;7.30;99.90;;;;;;4977206;28;20540;-68
2022/11/11 01:15:38;;;;;;;19.07;16.97;;;7.20;99.90;;;;;;4977024;28;20911;-67
2022/11/11 01:18:07;;;;;;;18.80;16.77;;;7.20;99.90;;;;;;4976998;28;21006;-67
2022/11/11 01:20:36;;;;;;;20.80;16.43;;;7.10;99.90;;;;;;4977267;28;20454;-67
2022/11/11 01:23:03;;;;;;;20.07;17.97;;;7.10;99.90;;;;;;4977357;28;20471;-68
2022/11/11 01:25:30;;;;;;;21.53;18.73;;;7.00;99.90;;;;;;4977027;28;20454;-68
2022/11/11 01:27:56;;;;;;;20.40;18.17;;;7.00;99.90;;;;;;4977059;28;20481;-67
2022/11/11 01:30:23;;;;;;;19.37;17.47;;;7.00;99.90;;;;;;4976934;28;20459;-67
2022/11/11 01:32:49;;;;;;;18.77;16.80;;;7.00;99.90;;;;;;4976649;28;20599;-67
2022/11/11 01:35:17;;;;;;;19.03;17.23;;;7.00;99.90;;;;;;4976635;28;20517;-67
2022/11/11 01:37:44;;;;;;;19.43;17.17;;;6.90;99.90;;;;;;4977411;28;20458;-68
2022/11/11 01:40:12;;;;;;;18.23;16.37;;;6.90;99.90;;;;;;4976818;28;20509;-67
2022/11/11 01:42:48;;;;;;;19.40;16.83;;;6.90;99.90;;;;;;4976411;28;20455;-67
2022/11/11 01:45:46;;;;;;;17.27;15.70;;;7.00;99.90;;;;;;4976862;28;20529;-66
2022/11/11 01:51:05;;;;;;;19.70;17.77;;;6.90;99.90;;;;;;4976653;28;20422;-67
2022/11/11 01:53:32;;;;;;;18.90;16.90;;;6.90;99.90;;;;;;4976386;28;20884;-67
2022/11/11 01:56:01;;;;;;;18.60;16.77;;;6.90;99.90;;;;;;4976062;28;20939;-67
2022/11/11 01:58:28;;;;;;;25.50;16.70;;;6.90;99.90;;;;;;4976479;28;20485;-67
2022/11/11 02:00:55;;;;;;;20.03;16.60;;;6.90;99.90;;;;;;4976230;28;21043;-67
2022/11/11 02:03:24;;;;;;;16.80;15.30;;;6.90;99.90;;;;;;4976611;28;20521;-67
2022/11/11 02:05:54;;;;;;;17.63;15.83;;;6.90;99.90;;;;;;4976436;28;20454;-68
2022/11/11 02:08:32;;;;;;;16.73;15.20;;;7.00;99.90;;;;;;4976115;28;20461;-67
2022/11/11 02:11:00;;;;;;;17.00;15.30;;;7.00;99.90;;;;;;4976303;28;20439;-67
2022/11/11 02:16:11;;;;;;;17.50;14.60;;;7.10;99.90;;;;;;4976266;28;20423;-68
2022/11/11 02:18:38;;;;;;;16.20;14.60;;;7.10;99.90;;;;;;4976105;28;20461;-68
2022/11/11 02:21:04;;;;;;;16.87;15.23;;;7.10;99.90;;;;;;4976172;28;20491;-68
2022/11/11 02:23:38;;;;;;;14.43;12.50;;;7.10;99.90;;;;;;4975824;28;20529;-68
2022/11/11 02:26:09;;;;;;;14.57;13.17;;;7.10;99.90;;;;;;4976196;28;20501;-67
2022/11/11 02:28:37;;;;;;;15.57;14.07;;;7.20;99.90;;;;;;4975958;28;20444;-68
2022/11/11 02:31:04;;;;;;;16.43;14.33;;;7.20;99.90;;;;;;4975921;28;20454;-68
2022/11/11 02:33:31;;;;;;;15.30;13.70;;;7.20;99.90;;;;;;4975738;28;20482;-67
2022/11/11 02:36:00;;;;;;;15.07;13.37;;;7.30;99.90;;;;;;4975924;28;20458;-68
2022/11/11 02:38:27;;;;;;;15.17;13.77;;;7.30;99.90;;;;;;4975421;28;20513;-68
2022/11/11 02:43:40;;;;;;;15.60;14.10;;;7.30;99.90;;;;;;4975852;28;20529;-67
2022/11/11 02:46:07;;;;;;;14.57;13.07;;;7.30;99.90;;;;;;4975726;28;20462;-68
2022/11/11 02:48:34;;;;;;;18.40;13.70;;;7.30;99.90;;;;;;4975538;28;20533;-67
2022/11/11 02:51:01;;;;;;;15.70;14.20;;;7.30;99.90;;;;;;4975546;28;20451;-67
2022/11/11 02:53:27;;;;;;;19.27;15.97;;;7.30;99.90;;;;;;4975405;28;20487;-67
2022/11/11 02:55:54;;;;;;;17.60;15.73;;;7.30;99.90;;;;;;4975203;28;21015;-68
2022/11/11 02:58:21;;;;;;;17.60;15.70;;;7.20;99.90;;;;;;4975684;28;20513;-67
2022/11/11 03:00:48;;;;;;;17.40;15.67;;;7.20;99.90;;;;;;4977896;28;20466;-67
2022/11/11 03:03:15;;;;;;;17.30;15.70;;;7.10;99.90;;;;;;4982004;28;20478;-67
2022/11/11 03:05:42;;;;;;;19.97;18.03;;;7.00;99.90;;;;;;4978074;28;20458;-67
2022/11/11 03:08:08;;;;;;;18.30;16.57;;;7.00;99.90;;;;;;4975467;28;20459;-67
2022/11/11 03:10:35;;;;;;;18.37;16.67;;;7.00;99.90;;;;;;4975270;28;20454;-67
2022/11/11 03:13:02;;;;;;;19.13;17.30;;;6.90;99.90;;;;;;4974863;28;20854;-67
2022/11/11 03:15:28;;;;;;;19.30;17.17;;;6.80;99.90;;;;;;4975031;28;20559;-68
2022/11/11 03:17:55;;;;;;;20.97;18.73;;;6.70;99.90;;;;;;4975983;28;20454;-67
2022/11/11 03:23:08;;;;;;;19.70;17.77;;;6.60;99.90;;;;;;4975031;28;20567;-67
2022/11/11 03:25:38;;;;;;;19.53;16.93;;;6.50;99.90;;;;;;4974594;28;20878;-67
2022/11/11 03:28:05;;;;;;;17.03;15.50;;;6.50;99.90;;;;;;4975051;28;20512;-67
2022/11/11 03:30:32;;;;;;;17.80;15.93;;;6.50;99.90;;;;;;4975797;28;20541;-68
2022/11/11 03:33:00;;;;;;;17.80;15.57;;;6.50;99.90;;;;;;4975230;28;20482;-67
2022/11/11 03:35:26;;;;;;;16.83;15.27;;;6.50;99.90;;;;;;4975665;28;20936;-67
2022/11/11 03:40:38;;;;;;;16.23;14.73;;;6.40;99.90;;;;;;4975698;28;20772;-67
2022/11/11 03:43:05;;;;;;;15.80;14.23;;;6.40;99.90;;;;;;4975343;28;20966;-66
2022/11/11 03:45:31;;;;;;;15.30;13.83;;;6.40;99.90;;;;;;4976578;28;20439;-66
2022/11/11 03:47:59;;;;;;;15.53;14.10;;;6.50;99.90;;;;;;4976087;28;20455;-67
2022/11/11 03:50:26;;;;;;;13.57;12.17;;;6.50;99.90;;;;;;4975823;28;20965;-67
2022/11/11 03:52:53;;;;;;;18.80;14.17;;;6.60;99.90;;;;;;4975823;28;20482;-66
2022/11/11 03:55:19;;;;;;;14.87;13.37;;;6.60;99.90;;;;;;4975103;28;20513;-66
2022/11/11 03:57:47;;;;;;;15.90;14.30;;;6.60;99.90;;;;;;4974760;28;20454;-66
2022/11/11 04:00:16;;;;;;;15.47;14.10;;;6.70;99.90;;;;;;4974653;28;20872;-66
2022/11/11 04:11:06;;;;;;;16.83;15.23;;;6.70;99.90;;;;;;4974768;28;20892;-67
2022/11/11 04:16:18;;;;;;;18.97;16.43;;;6.70;99.90;;;;;;4974702;28;20933;-67
2022/11/11 04:21:45;;;;;;;19.37;17.40;;;6.60;99.90;;;;;;4974901;28;20796;-67
2022/11/11 04:27:00;;;;;;;20.80;18.70;;;6.50;99.90;;;;;;4974866;28;20430;-68
2022/11/11 04:29:29;;;;;;;21.83;19.50;;;6.50;99.90;;;;;;4974356;28;20458;-67
2022/11/11 04:34:41;;;;;;;19.60;17.60;;;6.50;99.90;;;;;;4974628;28;20556;-67
2022/11/11 04:37:10;;;;;;;19.67;17.57;;;6.50;99.90;;;;;;4978104;28;20459;-67
2022/11/11 04:42:22;;;;;;;18.80;16.97;;;6.50;99.90;;;;;;4978469;28;20490;-68
2022/11/11 04:47:33;;;;;;;18.93;16.90;;;6.50;99.90;;;;;;4978048;28;20502;-67
2022/11/11 04:50:00;;;;;;;19.23;17.43;;;6.50;99.90;;;;;;4977892;28;20513;-67
2022/11/11 04:52:28;;;;;;;19.03;17.13;;;6.50;99.90;;;;;;4977924;28;20454;-68
2022/11/11 04:57:41;;;;;;;18.70;16.80;;;6.60;99.90;;;;;;4977894;28;20959;-67
2022/11/11 05:00:09;;;;;;;17.50;15.33;;;6.60;99.90;;;;;;4977466;28;20549;-66
2022/11/11 05:05:20;;;;;;;16.60;14.90;;;6.60;99.90;;;;;;4977870;28;20418;-68
2022/11/11 05:10:33;;;;;;;17.37;15.70;;;6.60;99.90;;;;;;4977631;28;20461;-68
2022/11/11 05:21:21;;;;;;;16.37;14.67;;;6.60;99.90;;;;;;4977824;28;20465;-68
2022/11/11 05:26:34;;;;;;;16.30;14.10;;;6.50;99.90;;;;;;4977563;28;20494;-68
2022/11/11 05:29:01;;;;;;;16.50;14.83;;;6.50;99.90;;;;;;4977564;28;20462;-67
2022/11/11 05:31:28;;;;;;;19.10;15.13;;;6.50;99.90;;;;;;4977296;28;20459;-67
2022/11/11 05:33:55;;;;;;;15.83;14.33;;;6.50;99.90;;;;;;4977173;28;20537;-68
2022/11/11 05:36:22;;;;;;;16.50;14.90;;;6.50;99.90;;;;;;4977062;28;20993;-68
2022/11/11 05:38:50;;;;;;;18.37;16.57;;;6.50;99.90;;;;;;4977075;28;20509;-68
2022/11/11 05:41:17;;;;;;;16.33;15.03;;;6.40;99.90;;;;;;4977163;28;20459;-68
2022/11/11 05:43:43;;;;;;;18.17;15.90;;;6.40;99.90;;;;;;4976495;28;20978;-68
2022/11/11 05:46:11;;;;;;;16.00;14.60;;;6.40;99.90;;;;;;4976985;28;20529;-68
2022/11/11 05:49:13;;;;;;;15.63;14.23;;;6.40;99.90;;;;;;4976295;28;20455;-69
2022/11/11 05:51:33;;;;;;;14.57;12.93;;;6.30;99.90;;;;;;4978582;28;20450;-67
2022/11/11 05:54:01;;;;;;;15.10;13.70;;;6.30;99.90;;;;;;4981156;28;20478;-67
2022/11/11 05:56:28;;;;;;;14.83;13.47;;;6.30;99.90;;;;;;4978268;28;20454;-68
2022/11/11 05:58:55;;;;;;;14.17;12.87;;;6.30;99.90;;;;;;4976538;28;20458;-68
2022/11/11 06:01:22;;;;;;;14.20;13.00;;;6.30;99.90;;;;;;4976425;28;20846;-68
2022/11/11 06:03:48;;;;;;;14.77;13.37;;;6.30;99.90;;;;;;4976275;28;20978;-68
2022/11/11 06:06:15;;;;;;;14.00;12.80;;;6.20;99.90;;;;;;4976598;28;20518;-68
2022/11/11 06:08:43;;;;;;;20.63;12.60;;;6.10;99.90;;;;;;4976587;28;20455;-67
2022/11/11 06:11:11;;;;;;;14.13;12.80;;;6.20;99.90;;;;;;4976589;28;20470;-67
2022/11/11 06:13:37;;;;;;;13.40;11.33;;;6.20;99.90;;;;;;4976251;28;20486;-68
2022/11/11 06:16:05;;;;;;;12.83;11.83;;;6.20;99.90;;;;;;4976592;28;20872;-65
2022/11/11 06:18:31;;;;;;;12.53;11.53;;;6.20;99.90;;;;;;4976479;28;20455;-65
2022/11/11 06:20:59;;;;;;;11.63;10.60;;;6.20;99.90;;;;;;4976266;28;20455;-64
2022/11/11 06:23:27;;;;;;;12.53;11.30;;;6.20;99.90;;;;;;4976469;28;20474;-65
2022/11/11 06:26:12;;;;;;;11.60;10.60;;;6.20;99.90;;;;;;4976392;28;20621;-65
2022/11/11 06:28:41;;;;;;;12.00;10.90;;;6.20;99.90;;;;;;4976400;28;20443;-66
2022/11/11 06:31:09;;;;;;;12.07;11.00;;;6.20;99.90;;;;;;4976314;28;20505;-65
2022/11/11 06:33:36;;;;;;;13.10;11.20;;;6.20;99.90;;;;;;4976117;28;20489;-66
2022/11/11 06:36:04;;;;;;;11.70;10.70;;;6.20;99.90;;;;;;4975782;28;21013;-65
2022/11/11 06:38:31;;;;;;;13.10;11.80;;;6.20;99.90;;;;;;4976152;28;20463;-65
2022/11/11 06:40:57;;;;;;;12.40;11.10;;;6.20;99.90;;;;;;4976091;28;20510;-65
2022/11/11 06:43:25;;;;;;;12.40;11.30;;;6.20;99.90;;;;;;4975725;28;21005;-65
2022/11/11 06:45:54;;;;;;;13.20;12.00;;;6.10;99.90;;;;;;4975936;28;20820;-65
2022/11/11 06:48:21;;;;;;;14.27;12.77;;;6.00;99.90;;;;;;4975876;28;20510;-65
2022/11/11 06:50:48;;;;;;;13.53;12.23;;;5.90;99.90;;;;;;4975668;28;20513;-65
2022/11/11 06:53:16;;;;;;;13.53;12.33;;;5.90;99.90;;;;;;4975521;28;20509;-65
2022/11/11 06:55:42;;;;;;;13.70;12.20;;;5.90;99.90;;;;;;4975636;28;20458;-64
2022/11/11 06:58:11;;;;;;;14.47;13.17;;;5.90;99.90;;;;;;4975258;28;20470;-65
2022/11/11 07:00:39;;;;;;;13.90;12.47;;;5.90;99.90;;;;;;4974965;28;20454;-64
2022/11/11 07:03:09;;;;;;;13.23;11.97;;;5.90;99.90;;;;;;4975434;28;20479;-64
2022/11/11 07:05:36;;;;;;;15.20;13.70;;;5.90;99.90;;;;;;4975607;28;20474;-65
2022/11/11 07:08:04;;;;;;;14.67;13.27;;;5.90;99.90;;;;;;4975410;28;20458;-65
2022/11/11 07:10:31;;;;;;;14.73;13.37;;;5.90;99.90;;;;;;4975435;28;20451;-65
2022/11/11 07:12:58;;;;;;;15.00;13.50;;;5.90;99.90;;;;;;4975456;28;20474;-65
2022/11/11 07:15:25;;;;;;;14.60;13.30;;;5.90;99.90;;;;;;4975207;28;20474;-65
2022/11/11 07:17:52;;;;;;;13.77;12.37;;;5.90;99.90;;;;;;4975091;28;20466;-64
2022/11/11 07:20:20;;;;;;;14.37;13.00;;;6.00;99.90;;;;;;4975194;28;20463;-64
2022/11/11 07:22:47;;;;;;;13.20;12.10;;;6.00;99.90;;;;;;4975222;28;20545;-65
2022/11/11 07:25:14;;;;;;;13.67;12.30;;;6.20;99.90;;;;;;4975047;28;20451;-64
2022/11/11 07:27:42;;;;;;;13.90;11.80;;;6.30;99.90;;;;;;4975063;28;20463;-64
2022/11/11 07:30:10;;;;;;;12.10;11.10;;;6.50;99.90;;;;;;4975514;28;20509;-64
2022/11/11 07:32:38;;;;;;;11.93;10.93;;;6.60;99.90;;;;;;4974777;28;20463;-65
2022/11/11 07:35:05;;;;;;;11.00;10.00;;;6.80;99.90;;;;;;4974892;28;20475;-64
2022/11/11 07:37:33;;;;;;;10.60;9.57;;;6.90;99.90;;;;;;4974843;28;21003;-64
2022/11/11 07:39:59;;;;;;;10.63;9.73;;;7.10;99.90;;;;;;4975086;28;20494;-64
2022/11/11 07:42:26;;;;;;;12.10;10.93;;;7.20;99.90;;;;;;4975331;28;20462;-64
2022/11/11 07:44:52;;;;;;;10.87;9.53;;;7.40;99.90;;;;;;4974845;28;20471;-65
2022/11/11 07:47:20;;;;;;;10.43;9.50;;;7.60;99.90;;;;;;4975634;28;20849;-64
2022/11/11 07:49:46;;;;;;;10.50;9.57;;;7.70;99.90;;;;;;4974967;28;20461;-65
2022/11/11 07:52:13;;;;;;;9.63;8.67;;;7.70;99.90;;;;;;4974497;28;21005;-64
2022/11/11 07:54:41;;;;;;;11.97;9.03;;;7.80;99.90;;;;;;4974544;28;20485;-65
2022/11/11 07:57:07;;;;;;;9.47;8.57;;;7.90;99.90;;;;;;4974901;28;20454;-64
2022/11/11 07:59:34;;;;;;;9.63;8.03;;;8.00;99.90;;;;;;4974577;28;20854;-64
2022/11/11 08:02:01;;;;;;;9.43;8.60;;;8.00;99.90;;;;;;4974457;28;20521;-63
2022/11/11 08:04:27;;;;;;;12.20;8.90;;;8.00;99.90;;;;;;4974889;28;20529;-64
2022/11/11 08:06:54;;;;;;;9.87;8.20;;;8.10;99.90;;;;;;4974484;28;20942;-65
2022/11/11 08:09:21;;;;;;;8.17;7.40;;;8.30;99.90;;;;;;4974866;28;20481;-65
2022/11/11 08:14:33;;;;;;;10.17;9.27;;;8.50;99.90;;;;;;4978243;28;20497;-65
2022/11/11 08:17:00;;;;;;;7.73;7.13;;;8.60;99.90;;;;;;4978348;28;20578;-66
2022/11/11 08:19:27;;;;;;;7.40;6.90;;;8.80;99.90;;;;;;4978686;28;20542;-65
2022/11/11 08:21:53;;;;;;;8.40;7.60;;;9.00;99.90;;;;;;4978600;28;20518;-65
2022/11/11 08:24:20;;;;;;;11.47;6.90;;;9.10;99.90;;;;;;4978261;28;20474;-66
2022/11/11 08:26:49;;;;;;;7.90;7.10;;;9.30;99.90;;;;;;4978135;28;20939;-65
2022/11/11 08:29:16;;;;;;;6.50;5.90;;;9.40;99.90;;;;;;4978405;28;20860;-66
2022/11/11 08:31:42;;;;;;;6.57;6.07;;;9.60;99.90;;;;;;4978352;28;20938;-66
2022/11/11 08:34:09;;;;;;;7.40;6.70;;;9.60;99.90;;;;;;4977926;28;20994;-65
2022/11/11 08:36:35;;;;;;;6.83;6.20;;;9.70;99.90;;;;;;4978563;28;20450;-65
2022/11/11 08:39:02;;;;;;;6.90;6.37;;;9.80;99.90;;;;;;4978563;28;20458;-65
2022/11/11 08:41:29;;;;;;;8.43;7.53;;;10.00;99.90;;;;;;4978513;28;20451;-65
2022/11/11 08:43:58;;;;;;;7.13;6.53;;;10.10;99.90;;;;;;4978611;28;20478;-65
2022/11/11 08:46:25;;;;;;;6.43;5.90;;;10.40;99.90;;;;;;4977992;28;20951;-65
2022/11/11 08:48:52;;;;;;;7.33;6.63;;;10.70;99.90;;;;;;4978218;28;20458;-65
2022/11/11 08:51:19;;;;;;;6.50;6.00;;;11.20;99.90;;;;;;4978017;28;20454;-65
2022/11/11 08:53:46;;;;;;;7.50;6.80;;;11.60;99.90;;;;;;4978249;28;20474;-65
2022/11/11 08:56:12;;;;;;;5.63;5.23;;;12.00;99.90;;;;;;4977727;28;20820;-65
2022/11/11 08:58:39;;;;;;;5.70;5.30;;;12.70;99.90;;;;;;4978017;28;20458;-65
2022/11/11 09:01:12;;;;;;;5.87;5.27;;;13.40;99.90;;;;;;4977606;28;20463;-65
2022/11/11 09:03:42;;;;;;;9.30;8.50;;;14.10;99.90;;;;;;4977519;28;21006;-65
2022/11/11 09:06:09;;;;;;;5.50;5.00;;;14.80;99.90;;;;;;4977571;28;20514;-64
2022/11/11 09:08:35;;;;;;;5.83;5.30;;;15.50;99.90;;;;;;4977800;28;20459;-65
2022/11/11 09:11:02;;;;;;;6.70;5.97;;;15.80;99.90;;;;;;4977692;28;20458;-65
2022/11/11 09:13:29;;;;;;;5.47;5.07;;;16.50;99.90;;;;;;4978264;28;20486;-65
2022/11/11 09:15:56;;;;;;;5.60;5.10;;;17.30;99.90;;;;;;4977538;28;20529;-65
2022/11/11 09:18:24;;;;;;;5.30;4.80;;;18.00;99.90;;;;;;4977486;28;20462;-65
2022/11/11 09:20:51;;;;;;;5.70;5.20;;;18.70;99.90;;;;;;4977497;28;20454;-66
2022/11/11 09:23:18;;;;;;;6.07;5.50;;;18.90;99.20;;;;;;4976312;28;20485;-66
2022/11/11 09:25:44;;;;;;;5.73;5.27;;;19.30;98.40;;;;;;4976973;28;20935;-66
2022/11/11 09:28:12;;;;;;;5.03;4.23;;;19.70;97.20;;;;;;4977634;28;20458;-66
2022/11/11 09:30:38;;;;;;;6.80;5.20;;;20.10;96.60;;;;;;4977537;28;20946;-66
2022/11/11 09:33:05;;;;;;;4.90;4.50;;;20.80;94.50;;;;;;4976866;28;20982;-66
2022/11/11 09:35:34;;;;;;;5.30;4.80;;;21.30;93.70;;;;;;4977031;28;20532;-65
2022/11/11 09:38:01;;;;;;;5.10;4.70;;;21.50;92.00;;;;;;4977101;28;20459;-66
2022/11/11 09:40:39;;;;;;;5.40;4.90;;;22.00;90.80;;;;;;4977216;28;20463;-66
2022/11/11 09:43:17;;;;;;;5.20;4.63;;;22.20;88.80;;;;;;4976944;28;21059;-66
2022/11/11 09:45:54;;;;;;;5.37;4.87;;;22.20;88.00;;;;;;4977640;28;20435;-66
2022/11/11 09:48:38;;;;;;;4.97;4.30;;;22.50;87.80;;;;;;4977082;28;20814;-66
2022/11/11 09:51:15;;;;;;;4.83;4.43;;;22.60;84.80;;;;;;4977142;28;20450;-66
2022/11/11 09:53:48;;;;;;;4.27;3.97;;;21.90;83.80;;;;;;4976689;28;20474;-66
2022/11/11 09:56:18;;;;;;;4.67;4.27;;;21.50;86.00;;;;;;4977129;28;20462;-66
2022/11/11 09:58:49;;;;;;;6.50;5.93;;;21.00;87.00;;;;;;4976919;28;20443;-65
2022/11/11 10:01:20;;;;;;;5.53;5.03;;;20.80;89.90;;;;;;4976009;28;20499;-64
2022/11/11 10:03:51;;;;;;;5.10;4.63;;;20.70;89.80;;;;;;4975704;28;20486;-65
2022/11/11 10:06:23;;;;;;;5.57;4.70;;;20.40;90.20;;;;;;4976223;28;20854;-64
2022/11/11 10:09:01;;;;;;;5.40;5.10;;;20.00;90.60;;;;;;4975603;28;20937;-64
2022/11/11 10:11:38;;;;;;;5.20;4.90;;;19.90;91.40;;;;;;4975887;28;20443;-64
2022/11/11 10:14:05;;;;;;;5.33;4.93;;;19.80;91.40;;;;;;4975910;28;20479;-64
2022/11/11 10:16:43;;;;;;;5.67;5.10;;;19.50;92.10;;;;;;4975521;28;21049;-64
2022/11/11 10:19:27;;;;;;;7.83;5.20;;;19.10;92.60;;;;;;4975824;28;20438;-64
2022/11/11 10:21:59;;;;;;;5.23;4.83;;;19.00;93.30;;;;;;4976136;28;20451;-64
2022/11/11 10:24:30;;;;;;;5.83;5.33;;;18.70;94.50;;;;;;4975851;28;20501;-65
2022/11/11 10:26:59;;;;;;;6.67;6.07;;;18.70;94.90;;;;;;4977940;28;20827;-65
2022/11/11 10:29:28;;;;;;;13.23;5.60;;;18.70;95.40;;;;;;4976325;28;20486;-64
2022/11/11 10:32:01;;;;;;;6.57;5.63;;;18.60;96.70;;;;;;4975315;28;20459;-65
2022/11/11 10:34:33;;;;;;;9.03;5.83;;;18.60;96.80;;;;;;4974455;28;20475;-68
2022/11/11 10:37:02;;;;;;;6.63;5.20;;;18.80;96.40;;;;;;4975151;28;20941;-65
2022/11/11 10:39:39;;;;;;;11.50;6.53;;;18.70;95.80;;;;;;4975501;28;20509;-66
2022/11/11 10:42:13;;;;;;;5.93;5.10;;;18.50;96.10;;;;;;4977655;28;20448;-65
2022/11/11 10:44:42;;;;;;;7.00;6.20;;;18.40;96.60;;;;;;4975278;28;20478;-66
2022/11/11 10:47:16;;;;;;;8.13;5.60;;;18.10;97.60;;;;;;4975164;28;20454;-66
2022/11/11 10:49:50;;;;;;;6.03;5.50;;;18.00;98.10;;;;;;4975072;28;20438;-67
2022/11/11 10:52:22;;;;;;;5.93;5.53;;;17.70;98.50;;;;;;4975507;28;20435;-66
2022/11/11 10:54:55;;;;;;;7.33;5.73;;;17.40;99.00;;;;;;4974990;28;20483;-66
2022/11/11 10:57:29;;;;;;;6.83;6.10;;;17.40;99.90;;;;;;4974932;28;20872;-66
2022/11/11 11:00:00;;;;;;;8.70;6.20;;;17.30;99.90;;;;;;4974957;28;20446;-66
2022/11/11 11:02:30;;;;;;;8.17;5.70;;;17.20;99.90;;;;;;4938859;28;1066499;-66
2022/11/11 11:05:03;;;;;;;6.60;6.10;;;17.00;99.90;;;;;;4975443;28;20270;-66
2022/11/11 11:07:40;;;;;;;6.53;5.90;;;16.90;99.90;;;;;;4975777;28;20435;-66
2022/11/11 11:10:12;;;;;;;6.47;5.97;;;16.80;99.90;;;;;;4975384;28;20435;-65
2022/11/11 11:12:44;;;;;;;7.50;6.17;;;16.60;99.90;;;;;;4975382;28;20478;-66
2022/11/11 11:15:16;;;;;;;7.20;6.60;;;16.50;99.90;;;;;;4975340;28;20463;-66
2022/11/11 11:17:51;;;;;;;12.57;5.90;;;16.30;99.90;;;;;;4975543;28;20447;-66
2022/11/11 11:20:19;;;;;;;6.10;5.60;;;16.20;99.90;;;;;;4975373;28;20438;-66
2022/11/11 11:22:50;;;;;;;7.03;6.30;;;16.00;99.90;;;;;;4975357;28;20543;-66
2022/11/11 11:25:18;;;;;;;6.50;5.13;;;15.90;99.90;;;;;;4975262;28;20538;-66
2022/11/11 11:27:45;;;;;;;7.50;6.73;;;15.90;99.90;;;;;;4975407;28;20482;-65
2022/11/11 11:30:14;;;;;;;6.63;5.30;;;15.80;99.90;;;;;;4975448;28;20461;-66
2022/11/11 11:32:43;;;;;;;5.43;5.03;;;15.70;99.90;;;;;;4975376;28;20482;-66
2022/11/11 11:35:28;;;;;;;5.97;5.47;;;15.80;99.90;;;;;;4975349;28;20475;-66
2022/11/11 11:37:56;;;;;;;6.27;5.70;;;15.60;99.90;;;;;;4975180;28;20443;-66
2022/11/11 11:40:23;;;;;;;7.07;5.70;;;15.60;99.90;;;;;;4974842;28;20454;-66
2022/11/11 11:42:50;;;;;;;5.53;5.00;;;15.60;99.90;;;;;;4974973;28;20523;-67
2022/11/11 11:45:21;;;;;;;8.30;5.40;;;15.60;99.90;;;;;;4977678;28;20509;-66
2022/11/11 11:47:58;;;;;;;6.47;5.80;;;15.70;99.90;;;;;;4981805;28;20450;-66
2022/11/11 11:50:36;;;;;;;8.43;5.83;;;15.80;99.90;;;;;;4981770;28;20493;-66
2022/11/11 11:53:20;;;;;;;6.23;5.47;;;15.90;99.90;;;;;;4981504;28;20632;-67
2022/11/11 11:55:50;;;;;;;8.67;5.60;;;16.10;99.90;;;;;;4981190;28;21041;-66
2022/11/11 11:58:30;;;;;;;6.57;4.93;;;16.20;99.90;;;;;;4981263;28;20907;-66
2022/11/11 12:01:04;;;;;;;6.10;5.30;;;16.30;99.90;;;;;;4981960;28;20501;-66
2022/11/11 12:04:02;;;;;;;5.40;5.00;;;16.40;99.90;;;;;;4988349;28;20489;-66
2022/11/11 12:06:39;;;;;;;5.27;4.77;;;16.50;99.90;;;;;;4988039;28;20438;-65
2022/11/11 12:09:20;;;;;;;5.13;4.70;;;16.70;99.90;;;;;;4988072;28;20446;-66
2022/11/11 12:11:52;;;;;;;6.70;4.37;;;16.80;99.90;;;;;;4987579;28;21023;-66
2022/11/11 12:14:45;;;;;;;8.83;5.53;;;16.90;99.90;;;;;;4982817;28;20478;-66
2022/11/11 12:17:26;;;;;;;4.80;4.43;;;16.90;99.90;;;;;;4979248;28;20842;-66
2022/11/11 12:20:00;;;;;;;12.17;5.13;;;17.00;99.90;;;;;;4981358;28;20842;-66
2022/11/11 12:22:40;;;;;;;5.30;4.77;;;17.00;99.90;;;;;;4980898;28;20914;-66
2022/11/11 12:25:16;;;;;;;5.30;4.80;;;16.90;99.90;;;;;;4981225;28;20461;-66
2022/11/11 12:27:54;;;;;;;4.67;4.20;;;16.90;99.90;;;;;;4981020;28;20898;-65
2022/11/11 12:30:27;;;;;;;6.63;5.57;;;16.90;99.90;;;;;;4981028;28;20505;-66
2022/11/11 12:33:18;;;;;;;7.50;4.90;;;16.80;99.90;;;;;;4981124;28;20439;-66
2022/11/11 12:36:01;;;;;;;6.27;4.83;;;16.70;99.90;;;;;;4981039;28;20462;-66
2022/11/11 12:38:50;;;;;;;5.13;3.90;;;16.70;99.90;;;;;;4980891;28;20506;-65
2022/11/11 12:41:25;;;;;;;3.30;3.10;;;16.70;99.90;;;;;;4981849;28;20767;-66
2022/11/11 12:44:01;;;;;;;7.20;4.00;;;16.60;99.90;;;;;;4980928;28;20549;-65
2022/11/11 12:46:39;;;;;;;5.90;4.13;;;16.60;99.90;;;;;;4981250;28;20434;-67
2022/11/11 12:49:25;;;;;;;5.30;4.80;;;16.60;99.90;;;;;;4981083;28;20481;-66
2022/11/11 12:52:01;;;;;;;4.37;3.53;;;16.70;99.90;;;;;;4980865;28;20443;-66
2022/11/11 12:54:38;;;;;;;4.30;3.90;;;16.70;99.90;;;;;;4981013;28;20536;-66
2022/11/11 12:57:16;;;;;;;4.53;3.77;;;16.70;99.90;;;;;;4979170;28;20545;-67
2022/11/11 12:59:59;;;;;;;4.00;3.70;;;16.60;99.90;;;;;;4978012;28;20522;-67
2022/11/11 13:02:44;;;;;;;7.53;4.73;;;16.60;99.90;;;;;;4977711;28;20462;-67
2022/11/11 13:05:16;;;;;;;3.83;3.47;;;16.50;99.90;;;;;;4978530;28;20496;-67
2022/11/11 13:08:04;;;;;;;3.97;3.67;;;16.50;99.90;;;;;;4978726;28;20443;-67
2022/11/11 13:10:37;;;;;;;4.20;3.80;;;16.50;99.90;;;;;;4977810;28;20497;-66
2022/11/11 13:13:16;;;;;;;3.83;3.53;;;16.50;99.90;;;;;;4977396;28;20977;-67
2022/11/11 13:15:43;;;;;;;4.03;3.63;;;16.40;99.90;;;;;;4977777;28;20462;-67
2022/11/11 13:18:15;;;;;;;5.47;4.30;;;16.30;99.90;;;;;;4977758;28;20459;-67
2022/11/11 13:20:52;;;;;;;3.53;3.23;;;16.40;99.90;;;;;;4977651;28;20489;-67
2022/11/11 13:23:19;;;;;;;4.27;3.83;;;16.40;99.90;;;;;;4978429;28;20474;-67
2022/11/11 13:25:50;;;;;;;3.77;3.40;;;16.40;99.90;;;;;;4978153;28;20525;-67
2022/11/11 13:28:22;;;;;;;3.80;3.60;;;16.40;99.90;;;;;;4977061;28;20930;-67
2022/11/11 13:31:06;;;;;;;5.00;3.33;;;16.50;99.90;;;;;;4977475;28;20450;-67
2022/11/11 13:33:40;;;;;;;6.80;3.83;;;16.50;99.90;;;;;;4977685;28;20475;-67
2022/11/11 13:36:08;;;;;;;4.63;4.30;;;16.50;99.90;;;;;;4977098;28;20505;-67
2022/11/11 13:38:38;;;;;;;6.80;3.70;;;16.50;99.90;;;;;;4976972;28;20930;-67
2022/11/11 13:41:07;;;;;;;4.80;3.60;;;16.50;99.90;;;;;;4977181;28;20454;-66
2022/11/11 13:43:40;;;;;;;7.50;3.43;;;16.50;99.90;;;;;;4977026;28;20483;-67
2022/11/11 13:46:27;;;;;;;7.60;3.10;;;16.50;99.90;;;;;;4976642;28;20849;-67
2022/11/11 13:48:55;;;;;;;4.07;3.40;;;16.50;99.90;;;;;;4976887;28;20447;-66
2022/11/11 13:51:26;;;;;;;11.23;3.70;;;16.50;99.90;;;;;;4976742;28;20459;-67
2022/11/11 13:53:53;;;;;;;2.33;2.20;;;16.50;99.90;;;;;;4977161;28;20838;-67
2022/11/11 13:56:26;;;;;;;4.80;2.40;;;16.40;99.90;;;;;;4976666;28;20847;-66
2022/11/11 13:58:55;;;;;;;2.90;2.70;;;16.40;99.90;;;;;;4976738;28;20450;-66
2022/11/11 14:01:23;;;;;;;3.17;2.30;;;16.40;99.90;;;;;;4976671;28;20569;-67
2022/11/11 14:04:02;;;;;;;3.63;2.60;;;16.40;99.90;;;;;;4977406;28;20482;-67
2022/11/11 14:06:36;;;;;;;2.43;2.17;;;16.40;99.90;;;;;;4976810;28;20455;-68
2022/11/11 14:09:03;;;;;;;2.80;2.10;;;16.40;99.90;;;;;;4976062;28;20931;-68
2022/11/11 14:11:33;;;;;;;2.37;2.10;;;16.40;99.90;;;;;;4976684;28;20545;-67
2022/11/11 14:14:45;;;;;;;2.57;2.37;;;16.40;99.90;;;;;;4976727;28;20482;-67
2022/11/11 14:17:14;;;;;;;2.27;2.17;;;16.40;99.90;;;;;;4976710;28;20974;-67
2022/11/11 14:19:41;;;;;;;2.63;2.43;;;16.40;99.90;;;;;;4976814;28;20459;-66